Terminal Aerodrome Forecast
Issued by NWS Sioux Falls, SD

Home | Current Version | Previous Version | Graphics & Text | Print | Product List | Glossary Off
Versions: 1 2 3 4 5 6 7 8 9 10 11 12 13 14 15 16 17 18 19 20 21 22 23 24 25 26 27 28 29 30 31 32 33 34 35 36 37

000
FTUS43 KFSD 010131 AAA
TAFSUX
TAF AMD
KSUX 010131Z 0102/0124 30007KT P6SM SCT050 BKN120
     FM010400 30010KT P6SM BKN060
      TEMPO 0105/0107 -SHRA
     FM010700 33008KT P6SM SCT015 BKN080
      TEMPO 0108/0112 BKN015
     FM011300 32008KT P6SM SCT030 SCT100
     FM011800 33012KT P6SM SCT250=

USA.gov is the U.S. government's official web portal to all federal, state and local government web resources and services.